Terminal Aerodrome Forecast
Issued by NWS Newport/Morehead City, NC

Home | Current Version | Previous Version | Text Only | Print | Product List | Glossary On
Versions: 1 2 3 4 5 6 7 8 9 10 11 12 13 14 15 16 17 18 19 20 21 22
436
FTUS42 KMHX 210247 AAA
TAFEWN
TAF AMD
KEWN 210247Z 2103/2124 19006KT P6SM BKN025
     FM210500 18004KT 5SM BR SCT007 BKN020
     FM211300 18004KT P6SM FEW015 SCT045
     FM211700 21008KT P6SM SCT050=

USA.gov is the U.S. government's official web portal to all federal, state and local government web resources and services.